Time;durP1;ratioP1;P1;durP2;ratioP2;P2;SDS_P1;SDS_P2;PMS_P1;PMS_P2;Temp;Humidity;BMP_temperature;BMP_pressure;BME280_temperature;BME280_humidity;BME280_pressure;Samples;Min_cycle;Max_cycle;Signal;HPM_P1;HPM_P2
2022/02/03 00:05:45;;;;;;;27.52;10.02;;;;;;;;;;6199859;28;20050;-85
2022/02/03 00:22:06;;;;;;;27.60;10.05;;;;;;;;;;6222325;28;20052;-83
2022/02/03 00:25:18;;;;;;;28.13;11.30;;;;;;;;;;6219382;28;20398;-82
2022/02/03 00:28:25;;;;;;;31.27;13.23;;;;;;;;;;6204889;28;20069;-83
2022/02/03 00:34:46;;;;;;;28.27;10.52;;;;;;;;;;6197594;28;20066;-83
2022/02/03 00:51:00;;;;;;;32.50;10.77;;;;;;;;;;6220493;28;20052;-84
2022/02/03 00:54:07;;;;;;;28.20;10.35;;;;;;;;;;6230855;28;20037;-85
2022/02/03 00:57:15;;;;;;;32.67;11.13;;;;;;;;;;6246120;28;20101;-85
2022/02/03 01:00:18;;;;;;;22.58;9.80;;;;;;;;;;6228060;28;20527;-85
2022/02/03 01:03:27;;;;;;;24.75;10.40;;;;;;;;;;6236587;28;20180;-85
2022/02/03 01:06:32;;;;;;;22.90;9.50;;;;;;;;;;6220265;28;20092;-85
2022/02/03 01:09:38;;;;;;;30.70;10.00;;;;;;;;;;6220100;28;20133;-85
2022/02/03 01:16:27;;;;;;;24.73;10.25;;;;;;;;;;6234393;28;20055;-86
2022/02/03 01:20:04;;;;;;;23.85;10.50;;;;;;;;;;6215983;28;20068;-86
2022/02/03 01:46:17;;;;;;;24.75;10.70;;;;;;;;;;6230600;28;20060;-83
2022/02/03 01:49:40;;;;;;;26.33;11.02;;;;;;;;;;6243166;28;20049;-83
2022/02/03 01:52:49;;;;;;;23.92;10.13;;;;;;;;;;6242500;28;20069;-82
2022/02/03 01:56:03;;;;;;;27.25;9.88;;;;;;;;;;6227557;28;20034;-83
2022/02/03 01:59:19;;;;;;;21.00;9.48;;;;;;;;;;6218686;28;20038;-85
2022/02/03 02:02:32;;;;;;;30.67;10.35;;;;;;;;;;6207566;28;20050;-85
2022/02/03 02:06:01;;;;;;;23.33;9.65;;;;;;;;;;6217042;28;20033;-81
2022/02/03 02:09:10;;;;;;;23.45;8.40;;;;;;;;;;6217927;28;20514;-84
2022/02/03 02:12:42;;;;;;;25.35;9.40;;;;;;;;;;6221456;28;20779;-84
2022/02/03 02:39:24;;;;;;;22.40;9.18;;;;;;;;;;6241391;28;20049;-82
2022/02/03 02:42:54;;;;;;;26.15;10.48;;;;;;;;;;6240031;28;20240;-83
2022/02/03 02:46:04;;;;;;;27.60;11.07;;;;;;;;;;6232500;28;20045;-86
2022/02/03 02:49:58;;;;;;;30.13;11.32;;;;;;;;;;6226927;28;20049;-84
2022/02/03 02:53:30;;;;;;;28.70;10.45;;;;;;;;;;6224383;28;20060;-86
2022/02/03 03:03:45;;;;;;;36.03;12.35;;;;;;;;;;6235320;28;20393;-82
2022/02/03 03:36:32;;;;;;;27.38;11.13;;;;;;;;;;6245428;28;20125;-84
2022/02/03 03:39:43;;;;;;;30.85;12.52;;;;;;;;;;6244733;28;20127;-85
2022/02/03 03:42:59;;;;;;;37.35;11.95;;;;;;;;;;6235909;28;20410;-83
2022/02/03 03:46:11;;;;;;;36.28;13.27;;;;;;;;;;6227473;28;20125;-83
2022/02/03 03:49:32;;;;;;;37.50;12.48;;;;;;;;;;6245309;28;20128;-82
2022/02/03 03:52:43;;;;;;;35.45;13.80;;;;;;;;;;6245503;28;20123;-83
2022/02/03 03:56:01;;;;;;;40.20;14.23;;;;;;;;;;6235641;28;20049;-83
2022/02/03 04:30:31;;;;;;;31.52;13.52;;;;;;;;;;6214350;28;20041;-83
2022/02/03 04:44:08;;;;;;;40.63;17.75;;;;;;;;;;6243926;28;20046;-84
2022/02/03 04:51:06;;;;;;;24.98;11.35;;;;;;;;;;6218935;28;20064;-82
2022/02/03 05:05:39;;;;;;;22.63;10.35;;;;;;;;;;6242042;28;20075;-84
2022/02/03 05:12:25;;;;;;;22.92;12.85;;;;;;;;;;6241364;28;20048;-85
2022/02/03 05:15:59;;;;;;;24.05;10.73;;;;;;;;;;6241796;28;20045;-83
2022/02/03 05:34:29;;;;;;;26.92;10.98;;;;;;;;;;6257152;28;20049;-86
2022/02/03 05:44:50;;;;;;;22.35;9.73;;;;;;;;;;6241951;28;20190;-88
2022/02/03 06:07:38;;;;;;;25.85;10.80;;;;;;;;;;6245965;28;20069;-83
2022/02/03 06:20:39;;;;;;;26.38;11.10;;;;;;;;;;6237800;28;20046;-84
2022/02/03 06:21:04;;;;;;;29.67;12.35;;;;;;;;;;6190134;28;20792;-85
2022/02/03 06:24:18;;;;;;;31.25;11.77;;;;;;;;;;6200871;28;20037;-83
2022/02/03 06:27:26;;;;;;;30.98;12.45;;;;;;;;;;6231736;28;20050;-84
2022/02/03 06:30:27;;;;;;;36.13;13.63;;;;;;;;;;6212313;28;20042;-84
2022/02/03 06:33:29;;;;;;;34.75;13.50;;;;;;;;;;6194482;28;20052;-84
2022/02/03 06:36:32;;;;;;;35.67;14.50;;;;;;;;;;6194087;28;20499;-87
2022/02/03 06:39:33;;;;;;;32.92;13.80;;;;;;;;;;6216588;28;20038;-83
2022/02/03 06:42:37;;;;;;;37.80;16.90;;;;;;;;;;6210336;28;20542;-85
2022/02/03 06:45:45;;;;;;;;;;;;;;;;;;6212591;28;20043;-85
2022/02/03 06:48:54;;;;;;;32.20;14.73;;;;;;;;;;6194241;28;19922;-84
2022/02/03 06:52:08;;;;;;;33.40;12.50;;;;;;;;;;6193197;28;20584;-86
2022/02/03 06:55:19;;;;;;;25.90;11.32;;;;;;;;;;6230254;28;20033;-84
2022/02/03 06:58:31;;;;;;;29.05;12.30;;;;;;;;;;6232065;28;20132;-85
2022/02/03 07:01:40;;;;;;;31.13;13.25;;;;;;;;;;6217664;28;20037;-81
2022/02/03 07:04:44;;;;;;;29.35;12.55;;;;;;;;;;6240369;28;20509;-82
2022/02/03 07:07:46;;;;;;;41.97;17.88;;;;;;;;;;6260643;28;20657;-83
2022/02/03 07:10:50;;;;;;;43.10;20.38;;;;;;;;;;6247585;28;20041;-81
2022/02/03 07:13:51;;;;;;;43.00;17.60;;;;;;;;;;6251260;28;20136;-82
2022/02/03 07:16:53;;;;;;;38.25;16.35;;;;;;;;;;6245107;28;20049;-83
2022/02/03 07:20:00;;;;;;;34.33;16.65;;;;;;;;;;6245553;28;20478;-82
2022/02/03 07:23:03;;;;;;;33.40;17.40;;;;;;;;;;6244029;28;20101;-82
2022/02/03 07:26:05;;;;;;;46.78;19.40;;;;;;;;;;6247612;28;20104;-82
2022/02/03 07:29:06;;;;;;;39.45;17.92;;;;;;;;;;6248471;28;20071;-82
2022/02/03 07:32:08;;;;;;;35.92;15.95;;;;;;;;;;6229773;28;20117;-84
2022/02/03 07:35:10;;;;;;;35.38;16.73;;;;;;;;;;6212912;28;20161;-81
2022/02/03 07:38:12;;;;;;;35.67;19.00;;;;;;;;;;6221381;28;20076;-81
2022/02/03 07:41:13;;;;;;;34.70;17.17;;;;;;;;;;6238400;28;20137;-82
2022/02/03 07:44:16;;;;;;;34.05;16.00;;;;;;;;;;6238171;28;20125;-83
2022/02/03 07:47:18;;;;;;;31.53;14.27;;;;;;;;;;6239828;28;20499;-84
2022/02/03 07:50:20;;;;;;;29.80;14.30;;;;;;;;;;6247826;28;20117;-82
2022/02/03 07:53:21;;;;;;;30.15;14.63;;;;;;;;;;6249161;28;20052;-83
2022/02/03 07:56:23;;;;;;;35.83;18.75;;;;;;;;;;6245861;28;20172;-83
2022/02/03 07:59:25;;;;;;;47.05;22.52;;;;;;;;;;6245063;28;20041;-83
2022/02/03 08:02:26;;;;;;;34.25;19.23;;;;;;;;;;6245062;28;20057;-84
2022/02/03 08:05:28;;;;;;;33.15;18.38;;;;;;;;;;6245688;28;20049;-85
2022/02/03 08:08:35;;;;;;;32.00;17.35;;;;;;;;;;6246030;28;20418;-83
2022/02/03 08:11:42;;;;;;;31.02;16.35;;;;;;;;;;6246400;28;20172;-84
2022/02/03 08:14:48;;;;;;;28.67;15.55;;;;;;;;;;6249033;28;20105;-85
2022/02/03 08:17:51;;;;;;;15.18;8.13;;;;;;;;;;6214984;28;20062;-83
2022/02/03 08:21:00;;;;;;;14.20;5.63;;;;;;;;;;6229890;28;20101;-84
2022/02/03 08:24:51;;;;;;;10.18;5.15;;;;;;;;;;6206583;28;20046;-83
2022/02/03 08:33:35;;;;;;;6.97;3.95;;;;;;;;;;6247684;28;20044;-86
2022/02/03 08:36:37;;;;;;;6.47;3.03;;;;;;;;;;6246629;28;20041;-85
2022/02/03 08:42:53;;;;;;;6.65;3.47;;;;;;;;;;6245468;28;20079;-84
2022/02/03 08:45:54;;;;;;;6.88;3.53;;;;;;;;;;6245031;28;20044;-84
2022/02/03 08:48:57;;;;;;;5.90;2.88;;;;;;;;;;6241883;28;20052;-85
2022/02/03 08:52:05;;;;;;;10.80;4.00;;;;;;;;;;6235022;28;20125;-84
2022/02/03 09:52:24;;;;;;;8.10;4.72;;;;;;;;;;6222623;28;20049;-84
2022/02/03 09:55:57;;;;;;;11.40;5.68;;;;;;;;;;6231212;28;20080;-84
2022/02/03 09:59:14;;;;;;;7.82;3.80;;;;;;;;;;6229363;28;20213;-81
2022/02/03 10:02:21;;;;;;;6.07;3.28;;;;;;;;;;6218933;28;20048;-81
2022/02/03 10:05:45;;;;;;;5.32;3.60;;;;;;;;;;6223104;28;20042;-82
2022/02/03 10:08:50;;;;;;;5.18;2.63;;;;;;;;;;6215293;28;20062;-81
2022/02/03 10:11:58;;;;;;;4.63;2.80;;;;;;;;;;6195955;28;20057;-81
2022/02/03 10:15:01;;;;;;;4.97;2.30;;;;;;;;;;6234885;28;20064;-81
2022/02/03 10:18:27;;;;;;;5.85;2.65;;;;;;;;;;6226802;28;20066;-82
2022/02/03 10:21:28;;;;;;;10.50;5.47;;;;;;;;;;6195108;28;20109;-82
2022/02/03 10:24:35;;;;;;;4.85;2.40;;;;;;;;;;6206040;28;20052;-81
2022/02/03 10:27:39;;;;;;;4.40;2.28;;;;;;;;;;6220870;28;20057;-81
2022/02/03 10:30:50;;;;;;;4.60;2.42;;;;;;;;;;6243302;28;20757;-81
2022/02/03 10:34:02;;;;;;;4.43;2.53;;;;;;;;;;6245539;28;20050;-83
2022/02/03 10:40:47;;;;;;;3.95;2.40;;;;;;;;;;6229240;28;20478;-79
2022/02/03 10:47:41;;;;;;;3.13;1.40;;;;;;;;;;6240599;28;20049;-78
2022/02/03 10:54:12;;;;;;;4.47;2.17;;;;;;;;;;6224153;28;19931;-79
2022/02/03 11:03:58;;;;;;;5.47;2.05;;;;;;;;;;6238974;28;20117;-82
2022/02/03 11:07:24;;;;;;;3.70;2.00;;;;;;;;;;6228257;28;20042;-83
2022/02/03 11:10:39;;;;;;;3.67;1.67;;;;;;;;;;6224768;28;20412;-81
2022/02/03 11:13:40;;;;;;;4.45;2.13;;;;;;;;;;6224623;28;20042;-81
2022/02/03 11:16:42;;;;;;;2.90;1.80;;;;;;;;;;6209991;28;20069;-81
2022/02/03 11:19:51;;;;;;;11.15;6.05;;;;;;;;;;6225732;28;20076;-81
2022/02/03 11:23:18;;;;;;;5.70;3.65;;;;;;;;;;6224554;28;20069;-81
2022/02/03 11:33:03;;;;;;;2.83;2.10;;;;;;;;;;6225257;28;20575;-82
2022/02/03 11:50:03;;;;;;;3.70;2.15;;;;;;;;;;6215387;28;20068;-80
2022/02/03 12:16:59;;;;;;;2.30;1.30;;;;;;;;;;6245467;28;20145;-81
2022/02/03 12:20:13;;;;;;;3.75;1.70;;;;;;;;;;6222256;28;20034;-81
2022/02/03 12:30:14;;;;;;;2.58;1.60;;;;;;;;;;6222217;28;20038;-82
2022/02/03 12:40:03;;;;;;;3.80;1.75;;;;;;;;;;6244371;28;20128;-83
2022/02/03 12:46:23;;;;;;;2.38;1.33;;;;;;;;;;6233829;28;20763;-83
2022/02/03 12:49:25;;;;;;;2.60;1.90;;;;;;;;;;6223255;28;20126;-82
2022/02/03 12:52:28;;;;;;;2.20;1.60;;;;;;;;;;6222267;28;20049;-83
2022/02/03 12:55:36;;;;;;;2.22;1.48;;;;;;;;;;6235277;28;20095;-82
2022/02/03 12:58:43;;;;;;;2.40;1.42;;;;;;;;;;6244728;28;20527;-82
2022/02/03 13:01:46;;;;;;;2.05;1.50;;;;;;;;;;6225561;28;20049;-82
2022/02/03 13:04:49;;;;;;;2.22;1.50;;;;;;;;;;6229309;28;20069;-80
2022/02/03 13:07:52;;;;;;;2.00;1.52;;;;;;;;;;6231707;28;20073;-82
2022/02/03 13:11:02;;;;;;;2.00;0.98;;;;;;;;;;6224462;28;20102;-82
2022/02/03 13:17:20;;;;;;;1.60;0.70;;;;;;;;;;6229706;28;20137;-81
2022/02/03 13:24:25;;;;;;;0.60;0.50;;;;;;;;;;6232052;28;20410;-82
2022/02/03 13:27:50;;;;;;;0.55;0.32;;;;;;;;;;6239915;28;20041;-80
2022/02/03 13:31:04;;;;;;;0.68;0.50;;;;;;;;;;6232459;28;20046;-82
2022/02/03 13:34:12;;;;;;;3.70;0.50;;;;;;;;;;6220653;28;20119;-83
2022/02/03 13:37:23;;;;;;;1.85;0.40;;;;;;;;;;6220335;28;20052;-81
2022/02/03 13:40:28;;;;;;;0.60;0.57;;;;;;;;;;6218249;28;20042;-81
2022/02/03 13:43:32;;;;;;;1.33;0.40;;;;;;;;;;6217138;28;20038;-81
2022/02/03 13:46:38;;;;;;;0.75;0.55;;;;;;;;;;6231678;28;20045;-81
2022/02/03 13:49:42;;;;;;;3.03;1.17;;;;;;;;;;6243804;28;20043;-80
2022/02/03 13:53:13;;;;;;;2.10;0.70;;;;;;;;;;6232447;28;20044;-81
2022/02/03 14:26:48;;;;;;;10.02;4.60;;;;;;;;;;6219170;28;20067;-82
2022/02/03 14:29:49;;;;;;;0.63;0.60;;;;;;;;;;6234001;28;20048;-83
2022/02/03 14:32:56;;;;;;;26.48;14.02;;;;;;;;;;6216317;28;20073;-83
2022/02/03 14:36:04;;;;;;;1.98;1.50;;;;;;;;;;6227350;28;20045;-82
2022/02/03 14:39:20;;;;;;;14.82;9.35;;;;;;;;;;6225967;28;20871;-82
2022/02/03 14:42:22;;;;;;;13.80;9.10;;;;;;;;;;6235111;28;20128;-82
2022/02/03 14:45:24;;;;;;;2.20;0.73;;;;;;;;;;6239618;28;20123;-83
2022/02/03 14:48:26;;;;;;;9.02;6.07;;;;;;;;;;6242648;28;20056;-81
2022/02/03 14:51:32;;;;;;;0.93;0.80;;;;;;;;;;6247103;28;20048;-82
2022/02/03 15:00:57;;;;;;;0.43;0.40;;;;;;;;;;6233962;28;20121;-82
2022/02/03 15:04:01;;;;;;;0.87;0.80;;;;;;;;;;6233071;28;20045;-82
2022/02/03 15:07:05;;;;;;;1.52;0.98;;;;;;;;;;6245886;28;20098;-82
2022/02/03 15:16:15;;;;;;;1.40;1.30;;;;;;;;;;6229484;28;20053;-82
2022/02/03 15:19:36;;;;;;;1.05;0.63;;;;;;;;;;6245771;28;20153;-80
2022/02/03 15:22:38;;;;;;;1.00;0.70;;;;;;;;;;6234831;28;20105;-83
2022/02/03 15:25:39;;;;;;;1.58;1.13;;;;;;;;;;6243936;28;20073;-80
2022/02/03 15:28:42;;;;;;;1.42;0.90;;;;;;;;;;6245657;28;20052;-80
2022/02/03 15:31:43;;;;;;;1.15;0.90;;;;;;;;;;6237770;28;20042;-80
2022/02/03 15:35:09;;;;;;;1.02;0.80;;;;;;;;;;6231019;28;20404;-80
2022/02/03 15:38:15;;;;;;;2.45;0.80;;;;;;;;;;6256693;28;20041;-81
2022/02/03 15:41:27;;;;;;;2.00;0.95;;;;;;;;;;6246027;28;20118;-80
2022/02/03 15:44:34;;;;;;;1.58;0.70;;;;;;;;;;6247123;28;20045;-80
2022/02/03 15:47:44;;;;;;;1.20;0.80;;;;;;;;;;6232017;28;20105;-82
2022/02/03 15:58:16;;;;;;;1.40;1.30;;;;;;;;;;6236357;28;20105;-83
2022/02/03 16:17:47;;;;;;;3.03;2.10;;;;;;;;;;6226147;28;20054;-82
2022/02/03 16:20:57;;;;;;;2.67;1.98;;;;;;;;;;6233610;28;20049;-81
2022/02/03 16:53:15;;;;;;;2.70;1.92;;;;;;;;;;6247580;28;20049;-82
2022/02/03 16:56:19;;;;;;;4.18;2.53;;;;;;;;;;6240885;28;20540;-82
2022/02/03 16:59:21;;;;;;;2.03;1.80;;;;;;;;;;6235930;28;20049;-82
2022/02/03 17:02:24;;;;;;;2.50;2.00;;;;;;;;;;6210319;28;20114;-82
2022/02/03 17:05:26;;;;;;;4.40;2.10;;;;;;;;;;6217676;28;20054;-82
2022/02/03 17:08:27;;;;;;;2.60;2.08;;;;;;;;;;6210414;28;20046;-82
2022/02/03 17:11:31;;;;;;;2.90;1.88;;;;;;;;;;6218604;28;20048;-85
2022/02/03 17:14:34;;;;;;;5.50;2.97;;;;;;;;;;6212364;28;20056;-83
2022/02/03 17:17:35;;;;;;;3.67;2.78;;;;;;;;;;6231691;28;20048;-82
2022/02/03 17:20:40;;;;;;;2.28;1.50;;;;;;;;;;6222995;28;20124;-81
2022/02/03 17:23:42;;;;;;;2.65;1.83;;;;;;;;;;6208518;28;20042;-83
2022/02/03 18:09:54;;;;;;;4.85;2.70;;;;;;;;;;6221625;28;20046;-83
2022/02/03 18:33:14;;;;;;;3.00;2.25;;;;;;;;;;6175434;28;20174;-83
2022/02/03 18:52:45;;;;;;;5.55;2.65;;;;;;;;;;6240943;28;20057;-82
2022/02/03 18:58:55;;;;;;;12.45;6.07;;;;;;;;;;6241472;28;20052;-82
2022/02/03 19:15:37;;;;;;;5.15;3.00;;;;;;;;;;6219871;28;20050;-81
2022/02/03 19:23:12;;;;;;;8.65;3.65;;;;;;;;;;6245110;28;20132;-81
2022/02/03 20:02:12;;;;;;;8.85;4.88;;;;;;;;;;6229581;28;20176;-83
2022/02/03 20:05:28;;;;;;;9.77;5.03;;;;;;;;;;6221343;28;20049;-82
2022/02/03 20:11:34;;;;;;;12.65;6.03;;;;;;;;;;6236719;28;20033;-81
2022/02/03 20:14:36;;;;;;;9.32;4.78;;;;;;;;;;6238759;28;20045;-81
2022/02/03 20:17:38;;;;;;;12.15;5.00;;;;;;;;;;6240648;28;20068;-83
2022/02/03 20:20:41;;;;;;;10.23;5.53;;;;;;;;;;6238108;28;20053;-82
2022/02/03 20:23:44;;;;;;;10.63;5.68;;;;;;;;;;6217857;28;20054;-81
2022/02/03 20:26:45;;;;;;;;;;;;;;;;;;6241255;28;20248;-83
2022/02/03 20:29:49;;;;;;;11.27;5.50;;;;;;;;;;6220247;28;19956;-81
2022/02/03 20:32:51;;;;;;;11.73;6.20;;;;;;;;;;6216478;28;20045;-82
2022/02/03 20:35:52;;;;;;;11.77;5.85;;;;;;;;;;6216432;28;20103;-80
2022/02/03 20:38:54;;;;;;;10.80;5.05;;;;;;;;;;6226217;28;20164;-84
2022/02/03 20:41:56;;;;;;;11.95;5.70;;;;;;;;;;6239092;28;20098;-82
2022/02/03 20:44:57;;;;;;;14.32;5.75;;;;;;;;;;6241464;28;20051;-83
2022/02/03 20:47:59;;;;;;;12.98;6.47;;;;;;;;;;6252355;28;20059;-82
2022/02/03 20:51:02;;;;;;;11.23;6.13;;;;;;;;;;6237793;28;20075;-81
2022/02/03 20:54:04;;;;;;;12.85;6.90;;;;;;;;;;6233674;28;20052;-83
2022/02/03 20:57:05;;;;;;;13.13;6.68;;;;;;;;;;6221759;28;20152;-82
2022/02/03 21:03:31;;;;;;;15.60;7.30;;;;;;;;;;6216996;28;20046;-80
2022/02/03 21:06:33;;;;;;;21.65;9.65;;;;;;;;;;6216972;28;20133;-83
2022/02/03 21:09:35;;;;;;;17.17;8.20;;;;;;;;;;6206679;28;20050;-84
2022/02/03 21:12:38;;;;;;;13.27;7.18;;;;;;;;;;6191074;28;20066;-83
2022/02/03 21:15:40;;;;;;;15.57;7.45;;;;;;;;;;6196031;28;20058;-81
2022/02/03 21:18:44;;;;;;;12.60;7.00;;;;;;;;;;6213918;28;20061;-81
2022/02/03 21:21:46;;;;;;;14.57;7.50;;;;;;;;;;6212766;28;20053;-82
2022/02/03 21:24:48;;;;;;;12.52;6.78;;;;;;;;;;6213738;28;20048;-81
2022/02/03 21:27:53;;;;;;;14.25;7.40;;;;;;;;;;6241384;28;20049;-81
2022/02/03 21:30:57;;;;;;;14.02;6.63;;;;;;;;;;6230927;28;20454;-77
2022/02/03 21:33:58;;;;;;;;;;;;;;;;;;6232871;28;20152;-80
2022/02/03 21:37:00;;;;;;;11.35;5.68;;;;;;;;;;6231684;28;19936;-78
2022/02/03 21:40:03;;;;;;;10.60;5.47;;;;;;;;;;6233024;28;20530;-80
2022/02/03 21:43:04;;;;;;;13.23;6.68;;;;;;;;;;6242657;28;20095;-79
2022/02/03 21:46:10;;;;;;;12.57;5.68;;;;;;;;;;6233932;28;20096;-77
2022/02/03 21:49:12;;;;;;;;;;;;;;;;;;6243263;28;20073;-80
2022/02/03 21:52:20;;;;;;;12.27;6.68;;;;;;;;;;6256199;28;20093;-80
2022/02/03 21:55:22;;;;;;;14.07;7.00;;;;;;;;;;6233376;28;20069;-80
2022/02/03 21:58:25;;;;;;;14.70;6.82;;;;;;;;;;6218130;28;20038;-80
2022/02/03 22:01:29;;;;;;;18.10;7.88;;;;;;;;;;6217684;28;20054;-80
2022/02/03 22:04:31;;;;;;;14.10;6.70;;;;;;;;;;6214300;28;20761;-81
2022/02/03 22:07:33;;;;;;;14.65;7.18;;;;;;;;;;6215252;28;20521;-79
2022/02/03 22:10:35;;;;;;;18.02;8.20;;;;;;;;;;6217061;28;20073;-81
2022/02/03 22:13:39;;;;;;;15.77;7.53;;;;;;;;;;6217433;28;20076;-81
2022/02/03 22:16:48;;;;;;;17.40;9.13;;;;;;;;;;6216818;28;20128;-80
2022/02/03 22:19:52;;;;;;;;;;;;;;;;;;6214790;28;20196;-81
2022/02/03 22:43:51;;;;;;;17.45;7.80;;;;;;;;;;6200023;28;20172;-81
2022/02/03 22:46:22;;;;;;;18.33;8.30;;;;;;;;;;6217337;28;20037;-81
2022/02/03 22:49:23;;;;;;;15.07;6.90;;;;;;;;;;6243503;28;20041;-78
2022/02/03 22:52:25;;;;;;;18.15;9.00;;;;;;;;;;6244031;28;20586;-82
2022/02/03 22:55:26;;;;;;;17.40;9.18;;;;;;;;;;6220763;28;20046;-79
2022/02/03 22:59:01;;;;;;;19.30;8.75;;;;;;;;;;6220264;28;20125;-80
2022/02/03 23:01:53;;;;;;;19.02;8.43;;;;;;;;;;6219045;28;20038;-80
2022/02/03 23:04:55;;;;;;;16.15;6.95;;;;;;;;;;6218285;28;20193;-79
2022/02/03 23:08:16;;;;;;;18.98;8.68;;;;;;;;;;6218199;28;20052;-81
2022/02/03 23:18:09;;;;;;;15.23;7.45;;;;;;;;;;6217046;28;20434;-82
2022/02/03 23:24:27;;;;;;;18.30;8.32;;;;;;;;;;6228795;28;20051;-80
2022/02/03 23:30:51;;;;;;;19.70;8.40;;;;;;;;;;6241977;28;20073;-80
2022/02/03 23:33:52;;;;;;;17.63;7.82;;;;;;;;;;6243924;28;20072;-79
2022/02/03 23:36:54;;;;;;;17.15;7.97;;;;;;;;;;6242871;28;20042;-78
